sensor_id;sensor_type;location;lat;lon;timestamp;P1;durP1;ratioP1;P2;durP2;ratioP2
44145;SDS011;29809;52.432;4.780;2022-07-01T00:01:35;1.35;;;0.95;;
44145;SDS011;29809;52.432;4.780;2022-07-01T00:04:00;2.60;;;1.42;;
44145;SDS011;29809;52.432;4.780;2022-07-01T00:06:25;2.75;;;1.60;;
44145;SDS011;29809;52.432;4.780;2022-07-01T00:08:51;2.72;;;1.73;;
44145;SDS011;29809;52.432;4.780;2022-07-01T00:11:17;1.95;;;1.70;;
44145;SDS011;29809;52.432;4.780;2022-07-01T00:13:42;3.67;;;2.05;;
44145;SDS011;29809;52.432;4.780;2022-07-01T00:16:07;3.67;;;1.95;;
44145;SDS011;29809;52.432;4.780;2022-07-01T00:18:33;2.30;;;2.10;;
44145;SDS011;29809;52.432;4.780;2022-07-01T00:20:58;2.30;;;2.00;;
44145;SDS011;29809;52.432;4.780;2022-07-01T00:23:25;3.33;;;2.22;;
44145;SDS011;29809;52.432;4.780;2022-07-01T00:25:51;3.92;;;2.42;;
44145;SDS011;29809;52.432;4.780;2022-07-01T00:28:16;2.83;;;2.20;;
44145;SDS011;29809;52.432;4.780;2022-07-01T00:30:41;2.75;;;2.10;;
44145;SDS011;29809;52.432;4.780;2022-07-01T00:33:06;2.80;;;2.17;;
44145;SDS011;29809;52.432;4.780;2022-07-01T00:35:32;4.25;;;2.03;;
44145;SDS011;29809;52.432;4.780;2022-07-01T00:37:57;2.75;;;2.17;;
44145;SDS011;29809;52.432;4.780;2022-07-01T00:40:23;2.20;;;1.73;;
44145;SDS011;29809;52.432;4.780;2022-07-01T00:42:48;2.63;;;2.20;;
44145;SDS011;29809;52.432;4.780;2022-07-01T00:45:14;2.33;;;2.10;;
44145;SDS011;29809;52.432;4.780;2022-07-01T00:47:39;2.47;;;2.00;;
44145;SDS011;29809;52.432;4.780;2022-07-01T00:50:05;2.70;;;2.45;;
44145;SDS011;29809;52.432;4.780;2022-07-01T00:52:31;2.95;;;2.40;;
44145;SDS011;29809;52.432;4.780;2022-07-01T00:54:57;2.88;;;2.67;;
44145;SDS011;29809;52.432;4.780;2022-07-01T00:57:22;3.70;;;3.10;;
44145;SDS011;29809;52.432;4.780;2022-07-01T00:59:48;5.43;;;3.58;;
44145;SDS011;29809;52.432;4.780;2022-07-01T01:02:13;5.38;;;3.58;;
44145;SDS011;29809;52.432;4.780;2022-07-01T01:04:38;4.28;;;3.88;;
44145;SDS011;29809;52.432;4.780;2022-07-01T01:07:04;4.95;;;4.03;;
44145;SDS011;29809;52.432;4.780;2022-07-01T01:09:29;4.85;;;3.65;;
44145;SDS011;29809;52.432;4.780;2022-07-01T01:11:55;4.43;;;3.90;;
44145;SDS011;29809;52.432;4.780;2022-07-01T01:14:20;4.28;;;3.88;;
44145;SDS011;29809;52.432;4.780;2022-07-01T01:16:47;6.88;;;4.20;;
44145;SDS011;29809;52.432;4.780;2022-07-01T01:19:12;3.92;;;3.60;;
44145;SDS011;29809;52.432;4.780;2022-07-01T01:21:37;5.47;;;4.53;;
44145;SDS011;29809;52.432;4.780;2022-07-01T01:24:03;4.65;;;4.25;;
44145;SDS011;29809;52.432;4.780;2022-07-01T01:26:28;7.63;;;4.95;;
44145;SDS011;29809;52.432;4.780;2022-07-01T01:28:54;10.10;;;5.82;;
44145;SDS011;29809;52.432;4.780;2022-07-01T01:31:27;6.63;;;4.97;;
44145;SDS011;29809;52.432;4.780;2022-07-01T01:33:56;5.82;;;5.32;;
44145;SDS011;29809;52.432;4.780;2022-07-01T01:36:21;6.65;;;6.05;;
44145;SDS011;29809;52.432;4.780;2022-07-01T01:38:46;6.55;;;5.95;;
44145;SDS011;29809;52.432;4.780;2022-07-01T01:41:12;7.57;;;5.07;;
44145;SDS011;29809;52.432;4.780;2022-07-01T01:43:37;5.45;;;5.05;;
44145;SDS011;29809;52.432;4.780;2022-07-01T01:46:03;5.97;;;5.00;;
44145;SDS011;29809;52.432;4.780;2022-07-01T01:48:29;7.88;;;5.57;;
44145;SDS011;29809;52.432;4.780;2022-07-01T01:50:55;8.23;;;5.45;;
44145;SDS011;29809;52.432;4.780;2022-07-01T01:53:20;5.45;;;4.95;;
44145;SDS011;29809;52.432;4.780;2022-07-01T01:55:45;6.07;;;5.15;;
44145;SDS011;29809;52.432;4.780;2022-07-01T01:58:10;7.85;;;5.80;;
44145;SDS011;29809;52.432;4.780;2022-07-01T02:00:36;7.15;;;6.45;;
44145;SDS011;29809;52.432;4.780;2022-07-01T02:03:01;6.13;;;5.53;;
44145;SDS011;29809;52.432;4.780;2022-07-01T02:05:26;8.80;;;8.02;;
44145;SDS011;29809;52.432;4.780;2022-07-01T02:07:51;8.25;;;7.43;;
44145;SDS011;29809;52.432;4.780;2022-07-01T02:10:17;8.65;;;7.78;;
44145;SDS011;29809;52.432;4.780;2022-07-01T02:12:43;8.88;;;8.02;;
44145;SDS011;29809;52.432;4.780;2022-07-01T02:15:08;8.65;;;7.13;;
44145;SDS011;29809;52.432;4.780;2022-07-01T02:17:33;8.05;;;7.18;;
44145;SDS011;29809;52.432;4.780;2022-07-01T02:19:59;8.18;;;7.38;;
44145;SDS011;29809;52.432;4.780;2022-07-01T02:22:24;8.23;;;7.53;;
44145;SDS011;29809;52.432;4.780;2022-07-01T02:24:49;7.95;;;7.15;;
44145;SDS011;29809;52.432;4.780;2022-07-01T02:27:14;9.73;;;7.55;;
44145;SDS011;29809;52.432;4.780;2022-07-01T02:29:40;8.13;;;7.32;;
44145;SDS011;29809;52.432;4.780;2022-07-01T02:32:07;8.35;;;6.70;;
44145;SDS011;29809;52.432;4.780;2022-07-01T02:34:32;8.32;;;6.97;;
44145;SDS011;29809;52.432;4.780;2022-07-01T02:36:57;8.05;;;7.28;;
44145;SDS011;29809;52.432;4.780;2022-07-01T02:39:22;7.45;;;6.80;;
44145;SDS011;29809;52.432;4.780;2022-07-01T02:41:48;8.23;;;7.50;;
44145;SDS011;29809;52.432;4.780;2022-07-01T02:44:34;8.30;;;7.45;;
44145;SDS011;29809;52.432;4.780;2022-07-01T02:46:59;7.32;;;6.70;;
44145;SDS011;29809;52.432;4.780;2022-07-01T02:49:24;8.02;;;6.88;;
44145;SDS011;29809;52.432;4.780;2022-07-01T02:51:49;7.60;;;6.90;;
44145;SDS011;29809;52.432;4.780;2022-07-01T02:54:14;7.57;;;6.78;;
44145;SDS011;29809;52.432;4.780;2022-07-01T02:56:41;9.48;;;7.15;;
44145;SDS011;29809;52.432;4.780;2022-07-01T02:59:06;6.45;;;5.95;;
44145;SDS011;29809;52.432;4.780;2022-07-01T03:01:31;6.93;;;6.25;;
44145;SDS011;29809;52.432;4.780;2022-07-01T03:03:57;7.55;;;6.80;;
44145;SDS011;29809;52.432;4.780;2022-07-01T03:06:22;8.13;;;7.05;;
44145;SDS011;29809;52.432;4.780;2022-07-01T03:08:47;8.10;;;7.30;;
44145;SDS011;29809;52.432;4.780;2022-07-01T03:11:12;7.82;;;6.68;;
44145;SDS011;29809;52.432;4.780;2022-07-01T03:13:38;7.50;;;6.70;;
44145;SDS011;29809;52.432;4.780;2022-07-01T03:16:03;8.07;;;6.45;;
44145;SDS011;29809;52.432;4.780;2022-07-01T03:18:28;7.90;;;6.85;;
44145;SDS011;29809;52.432;4.780;2022-07-01T03:20:53;7.10;;;6.40;;
44145;SDS011;29809;52.432;4.780;2022-07-01T03:23:19;8.88;;;7.20;;
44145;SDS011;29809;52.432;4.780;2022-07-01T03:25:44;8.98;;;7.55;;
44145;SDS011;29809;52.432;4.780;2022-07-01T03:28:09;6.80;;;6.07;;
44145;SDS011;29809;52.432;4.780;2022-07-01T03:30:34;7.65;;;6.95;;
44145;SDS011;29809;52.432;4.780;2022-07-01T03:33:00;6.57;;;5.90;;
44145;SDS011;29809;52.432;4.780;2022-07-01T03:35:25;7.75;;;6.82;;
44145;SDS011;29809;52.432;4.780;2022-07-01T03:38:10;7.28;;;5.97;;
44145;SDS011;29809;52.432;4.780;2022-07-01T03:40:35;7.07;;;6.32;;
44145;SDS011;29809;52.432;4.780;2022-07-01T03:43:01;6.68;;;6.07;;
44145;SDS011;29809;52.432;4.780;2022-07-01T03:45:26;8.82;;;6.97;;
44145;SDS011;29809;52.432;4.780;2022-07-01T03:47:51;9.30;;;6.63;;
44145;SDS011;29809;52.432;4.780;2022-07-01T03:50:17;10.38;;;6.65;;
44145;SDS011;29809;52.432;4.780;2022-07-01T03:52:42;7.13;;;6.30;;
44145;SDS011;29809;52.432;4.780;2022-07-01T03:55:09;7.47;;;6.65;;
44145;SDS011;29809;52.432;4.780;2022-07-01T03:57:34;7.25;;;6.28;;
44145;SDS011;29809;52.432;4.780;2022-07-01T03:59:59;8.13;;;5.47;;
44145;SDS011;29809;52.432;4.780;2022-07-01T04:02:24;6.80;;;6.03;;
44145;SDS011;29809;52.432;4.780;2022-07-01T04:04:50;7.10;;;6.07;;
44145;SDS011;29809;52.432;4.780;2022-07-01T04:07:15;6.15;;;5.53;;
44145;SDS011;29809;52.432;4.780;2022-07-01T04:09:40;9.98;;;5.53;;
44145;SDS011;29809;52.432;4.780;2022-07-01T04:12:06;5.85;;;5.10;;
44145;SDS011;29809;52.432;4.780;2022-07-01T04:14:33;6.20;;;5.60;;
44145;SDS011;29809;52.432;4.780;2022-07-01T04:16:58;6.68;;;5.43;;
44145;SDS011;29809;52.432;4.780;2022-07-01T04:19:23;7.55;;;5.00;;
44145;SDS011;29809;52.432;4.780;2022-07-01T04:21:49;5.97;;;4.88;;
44145;SDS011;29809;52.432;4.780;2022-07-01T04:24:33;7.00;;;4.80;;
44145;SDS011;29809;52.432;4.780;2022-07-01T04:26:59;9.23;;;4.93;;
44145;SDS011;29809;52.432;4.780;2022-07-01T04:29:25;6.10;;;4.57;;
44145;SDS011;29809;52.432;4.780;2022-07-01T04:31:50;6.43;;;4.60;;
44145;SDS011;29809;52.432;4.780;2022-07-01T04:34:16;7.20;;;4.70;;
44145;SDS011;29809;52.432;4.780;2022-07-01T04:36:41;6.18;;;3.83;;
44145;SDS011;29809;52.432;4.780;2022-07-01T04:39:06;7.03;;;4.68;;
44145;SDS011;29809;52.432;4.780;2022-07-01T04:41:32;6.95;;;4.47;;
44145;SDS011;29809;52.432;4.780;2022-07-01T04:44:16;9.57;;;4.88;;
44145;SDS011;29809;52.432;4.780;2022-07-01T04:46:42;9.77;;;4.65;;
44145;SDS011;29809;52.432;4.780;2022-07-01T04:49:07;5.32;;;4.03;;
44145;SDS011;29809;52.432;4.780;2022-07-01T04:51:33;7.55;;;4.00;;
44145;SDS011;29809;52.432;4.780;2022-07-01T04:54:00;8.38;;;3.63;;
44145;SDS011;29809;52.432;4.780;2022-07-01T04:56:25;6.75;;;4.15;;
44145;SDS011;29809;52.432;4.780;2022-07-01T04:58:51;6.03;;;3.85;;
44145;SDS011;29809;52.432;4.780;2022-07-01T05:01:17;5.13;;;3.58;;
44145;SDS011;29809;52.432;4.780;2022-07-01T05:03:42;4.30;;;3.38;;
44145;SDS011;29809;52.432;4.780;2022-07-01T05:06:07;5.85;;;3.50;;
44145;SDS011;29809;52.432;4.780;2022-07-01T05:08:32;7.40;;;2.95;;
44145;SDS011;29809;52.432;4.780;2022-07-01T05:10:58;4.53;;;3.40;;
44145;SDS011;29809;52.432;4.780;2022-07-01T05:13:23;253.52;;;71.63;;
44145;SDS011;29809;52.432;4.780;2022-07-01T05:15:48;125.97;;;38.33;;
44145;SDS011;29809;52.432;4.780;2022-07-01T05:18:14;101.45;;;33.58;;
44145;SDS011;29809;52.432;4.780;2022-07-01T05:20:57;95.88;;;32.97;;
44145;SDS011;29809;52.432;4.780;2022-07-01T05:23:41;77.25;;;27.50;;
44145;SDS011;29809;52.432;4.780;2022-07-01T05:26:06;67.80;;;20.02;;
44145;SDS011;29809;52.432;4.780;2022-07-01T05:28:32;44.90;;;14.88;;
44145;SDS011;29809;52.432;4.780;2022-07-01T05:30:57;28.50;;;10.30;;
44145;SDS011;29809;52.432;4.780;2022-07-01T05:33:22;24.65;;;9.27;;
44145;SDS011;29809;52.432;4.780;2022-07-01T05:35:51;15.90;;;6.63;;
44145;SDS011;29809;52.432;4.780;2022-07-01T05:38:16;12.02;;;5.97;;
44145;SDS011;29809;52.432;4.780;2022-07-01T05:40:41;10.00;;;4.93;;
44145;SDS011;29809;52.432;4.780;2022-07-01T05:43:06;10.10;;;4.40;;
44145;SDS011;29809;52.432;4.780;2022-07-01T05:45:32;9.25;;;4.00;;
44145;SDS011;29809;52.432;4.780;2022-07-01T05:47:57;6.88;;;3.58;;
44145;SDS011;29809;52.432;4.780;2022-07-01T05:50:23;8.10;;;3.67;;
44145;SDS011;29809;52.432;4.780;2022-07-01T05:52:48;5.68;;;3.15;;
44145;SDS011;29809;52.432;4.780;2022-07-01T05:55:13;6.57;;;2.95;;
44145;SDS011;29809;52.432;4.780;2022-07-01T05:57:39;6.30;;;3.05;;
44145;SDS011;29809;52.432;4.780;2022-07-01T06:00:04;4.90;;;2.83;;
44145;SDS011;29809;52.432;4.780;2022-07-01T06:02:30;7.03;;;2.90;;
44145;SDS011;29809;52.432;4.780;2022-07-01T06:04:55;5.30;;;2.72;;
44145;SDS011;29809;52.432;4.780;2022-07-01T06:07:20;5.57;;;2.80;;
44145;SDS011;29809;52.432;4.780;2022-07-01T06:09:45;6.63;;;2.75;;
44145;SDS011;29809;52.432;4.780;2022-07-01T06:12:11;4.75;;;2.70;;
44145;SDS011;29809;52.432;4.780;2022-07-01T06:14:36;4.80;;;2.53;;
44145;SDS011;29809;52.432;4.780;2022-07-01T06:17:02;4.63;;;2.55;;
44145;SDS011;29809;52.432;4.780;2022-07-01T06:19:28;4.95;;;2.30;;
44145;SDS011;29809;52.432;4.780;2022-07-01T06:21:53;4.82;;;2.28;;
44145;SDS011;29809;52.432;4.780;2022-07-01T06:24:18;5.45;;;2.63;;
44145;SDS011;29809;52.432;4.780;2022-07-01T06:26:45;6.13;;;2.97;;
44145;SDS011;29809;52.432;4.780;2022-07-01T06:29:12;6.70;;;2.35;;
44145;SDS011;29809;52.432;4.780;2022-07-01T06:31:38;14.55;;;3.55;;
44145;SDS011;29809;52.432;4.780;2022-07-01T06:34:03;11.73;;;3.00;;
44145;SDS011;29809;52.432;4.780;2022-07-01T06:36:28;7.75;;;2.80;;
44145;SDS011;29809;52.432;4.780;2022-07-01T06:38:54;7.90;;;3.15;;
44145;SDS011;29809;52.432;4.780;2022-07-01T06:41:19;11.32;;;3.40;;
44145;SDS011;29809;52.432;4.780;2022-07-01T06:43:53;6.57;;;2.92;;
44145;SDS011;29809;52.432;4.780;2022-07-01T06:46:19;8.70;;;3.42;;
44145;SDS011;29809;52.432;4.780;2022-07-01T06:48:44;5.80;;;2.60;;
44145;SDS011;29809;52.432;4.780;2022-07-01T06:51:09;8.05;;;3.08;;
44145;SDS011;29809;52.432;4.780;2022-07-01T06:53:35;5.75;;;2.80;;
44145;SDS011;29809;52.432;4.780;2022-07-01T06:56:00;6.00;;;2.80;;
44145;SDS011;29809;52.432;4.780;2022-07-01T06:58:26;4.70;;;2.80;;
44145;SDS011;29809;52.432;4.780;2022-07-01T07:00:51;5.70;;;2.28;;
44145;SDS011;29809;52.432;4.780;2022-07-01T07:03:16;5.18;;;1.90;;
44145;SDS011;29809;52.432;4.780;2022-07-01T07:05:41;6.18;;;2.13;;
44145;SDS011;29809;52.432;4.780;2022-07-01T07:08:07;4.75;;;1.80;;
44145;SDS011;29809;52.432;4.780;2022-07-01T07:10:32;3.75;;;2.03;;
44145;SDS011;29809;52.432;4.780;2022-07-01T07:12:57;7.45;;;2.20;;
44145;SDS011;29809;52.432;4.780;2022-07-01T07:15:23;9.60;;;2.35;;
44145;SDS011;29809;52.432;4.780;2022-07-01T07:17:48;7.32;;;2.30;;
44145;SDS011;29809;52.432;4.780;2022-07-01T07:20:13;3.15;;;1.75;;
44145;SDS011;29809;52.432;4.780;2022-07-01T07:22:38;3.63;;;1.63;;
44145;SDS011;29809;52.432;4.780;2022-07-01T07:25:04;5.07;;;1.83;;
44145;SDS011;29809;52.432;4.780;2022-07-01T07:27:29;4.45;;;2.08;;
44145;SDS011;29809;52.432;4.780;2022-07-01T07:29:54;4.05;;;1.45;;
44145;SDS011;29809;52.432;4.780;2022-07-01T07:32:20;7.82;;;2.63;;
44145;SDS011;29809;52.432;4.780;2022-07-01T07:34:45;5.35;;;1.45;;
44145;SDS011;29809;52.432;4.780;2022-07-01T07:37:10;3.55;;;1.35;;
44145;SDS011;29809;52.432;4.780;2022-07-01T07:39:35;3.17;;;1.55;;
44145;SDS011;29809;52.432;4.780;2022-07-01T07:42:01;4.60;;;1.33;;
44145;SDS011;29809;52.432;4.780;2022-07-01T07:44:26;3.40;;;1.30;;
44145;SDS011;29809;52.432;4.780;2022-07-01T07:46:51;5.35;;;1.45;;
44145;SDS011;29809;52.432;4.780;2022-07-01T07:49:17;3.42;;;1.20;;
44145;SDS011;29809;52.432;4.780;2022-07-01T07:51:42;2.25;;;1.05;;
44145;SDS011;29809;52.432;4.780;2022-07-01T07:54:07;2.25;;;1.00;;
44145;SDS011;29809;52.432;4.780;2022-07-01T07:56:32;2.90;;;1.02;;
44145;SDS011;29809;52.432;4.780;2022-07-01T07:58:58;4.80;;;1.40;;
44145;SDS011;29809;52.432;4.780;2022-07-01T08:01:23;1.48;;;0.93;;
44145;SDS011;29809;52.432;4.780;2022-07-01T08:03:48;2.35;;;0.98;;
44145;SDS011;29809;52.432;4.780;2022-07-01T08:06:13;2.70;;;0.80;;
44145;SDS011;29809;52.432;4.780;2022-07-01T08:08:39;1.85;;;0.93;;
44145;SDS011;29809;52.432;4.780;2022-07-01T08:11:04;2.67;;;1.10;;
44145;SDS011;29809;52.432;4.780;2022-07-01T08:13:29;3.40;;;1.10;;
44145;SDS011;29809;52.432;4.780;2022-07-01T08:15:55;2.35;;;0.88;;
44145;SDS011;29809;52.432;4.780;2022-07-01T08:18:20;2.72;;;1.10;;
44145;SDS011;29809;52.432;4.780;2022-07-01T08:20:46;2.33;;;1.15;;
44145;SDS011;29809;52.432;4.780;2022-07-01T08:23:11;4.10;;;1.25;;
44145;SDS011;29809;52.432;4.780;2022-07-01T08:25:37;3.13;;;0.73;;
44145;SDS011;29809;52.432;4.780;2022-07-01T08:28:02;3.47;;;0.77;;
44145;SDS011;29809;52.432;4.780;2022-07-01T08:30:28;1.63;;;0.75;;
44145;SDS011;29809;52.432;4.780;2022-07-01T08:32:53;1.77;;;0.70;;
44145;SDS011;29809;52.432;4.780;2022-07-01T08:35:19;2.03;;;1.00;;
44145;SDS011;29809;52.432;4.780;2022-07-01T08:37:44;2.80;;;1.00;;
44145;SDS011;29809;52.432;4.780;2022-07-01T08:40:09;3.90;;;1.30;;
44145;SDS011;29809;52.432;4.780;2022-07-01T08:42:34;3.83;;;1.42;;
44145;SDS011;29809;52.432;4.780;2022-07-01T08:45:00;2.40;;;1.30;;
44145;SDS011;29809;52.432;4.780;2022-07-01T08:47:25;3.92;;;1.30;;
44145;SDS011;29809;52.432;4.780;2022-07-01T08:49:50;3.63;;;1.58;;
44145;SDS011;29809;52.432;4.780;2022-07-01T08:52:16;3.55;;;1.55;;
44145;SDS011;29809;52.432;4.780;2022-07-01T08:54:41;3.08;;;1.23;;
44145;SDS011;29809;52.432;4.780;2022-07-01T08:57:07;3.17;;;1.33;;
44145;SDS011;29809;52.432;4.780;2022-07-01T08:59:33;3.42;;;1.25;;
44145;SDS011;29809;52.432;4.780;2022-07-01T09:02:02;2.05;;;1.10;;
44145;SDS011;29809;52.432;4.780;2022-07-01T09:04:29;3.35;;;1.10;;
44145;SDS011;29809;52.432;4.780;2022-07-01T09:07:03;2.60;;;1.05;;
44145;SDS011;29809;52.432;4.780;2022-07-01T09:09:28;3.45;;;1.13;;
44145;SDS011;29809;52.432;4.780;2022-07-01T09:11:54;2.40;;;1.27;;
44145;SDS011;29809;52.432;4.780;2022-07-01T09:14:20;2.58;;;1.35;;
44145;SDS011;29809;52.432;4.780;2022-07-01T09:16:47;4.65;;;1.55;;
44145;SDS011;29809;52.432;4.780;2022-07-01T09:19:14;3.97;;;1.25;;
44145;SDS011;29809;52.432;4.780;2022-07-01T09:21:40;1.92;;;1.10;;
44145;SDS011;29809;52.432;4.780;2022-07-01T09:24:21;2.15;;;1.10;;
44145;SDS011;29809;52.432;4.780;2022-07-01T09:26:56;2.85;;;1.35;;
44145;SDS011;29809;52.432;4.780;2022-07-01T09:29:29;3.53;;;0.98;;
44145;SDS011;29809;52.432;4.780;2022-07-01T09:31:56;5.30;;;1.23;;
44145;SDS011;29809;52.432;4.780;2022-07-01T09:34:21;4.95;;;1.17;;
44145;SDS011;29809;52.432;4.780;2022-07-01T09:36:54;3.72;;;1.38;;
44145;SDS011;29809;52.432;4.780;2022-07-01T09:39:19;1.67;;;0.90;;
44145;SDS011;29809;52.432;4.780;2022-07-01T09:41:45;1.20;;;0.70;;
44145;SDS011;29809;52.432;4.780;2022-07-01T09:44:10;2.10;;;0.88;;
44145;SDS011;29809;52.432;4.780;2022-07-01T09:46:35;3.78;;;1.05;;
44145;SDS011;29809;52.432;4.780;2022-07-01T09:49:01;5.57;;;1.02;;
44145;SDS011;29809;52.432;4.780;2022-07-01T09:51:26;4.63;;;1.00;;
44145;SDS011;29809;52.432;4.780;2022-07-01T09:53:53;5.28;;;1.75;;
44145;SDS011;29809;52.432;4.780;2022-07-01T09:56:21;4.22;;;1.10;;
44145;SDS011;29809;52.432;4.780;2022-07-01T09:58:47;4.72;;;1.08;;
44145;SDS011;29809;52.432;4.780;2022-07-01T10:01:13;2.83;;;1.17;;
44145;SDS011;29809;52.432;4.780;2022-07-01T10:03:38;4.38;;;1.10;;
44145;SDS011;29809;52.432;4.780;2022-07-01T10:13:41;4.35;;;1.08;;
44145;SDS011;29809;52.432;4.780;2022-07-01T10:16:07;4.90;;;1.17;;
44145;SDS011;29809;52.432;4.780;2022-07-01T10:18:33;3.08;;;1.30;;
44145;SDS011;29809;52.432;4.780;2022-07-01T10:20:59;2.17;;;1.02;;
44145;SDS011;29809;52.432;4.780;2022-07-01T10:23:27;6.38;;;1.33;;
44145;SDS011;29809;52.432;4.780;2022-07-01T10:25:53;3.47;;;1.08;;
44145;SDS011;29809;52.432;4.780;2022-07-01T10:28:20;2.97;;;0.90;;
44145;SDS011;29809;52.432;4.780;2022-07-01T10:35:52;2.80;;;0.98;;
44145;SDS011;29809;52.432;4.780;2022-07-01T10:38:17;3.95;;;1.30;;
44145;SDS011;29809;52.432;4.780;2022-07-01T10:40:43;3.78;;;1.08;;
44145;SDS011;29809;52.432;4.780;2022-07-01T10:43:10;3.10;;;0.95;;
44145;SDS011;29809;52.432;4.780;2022-07-01T10:45:45;5.40;;;1.33;;
44145;SDS011;29809;52.432;4.780;2022-07-01T10:48:17;3.55;;;1.33;;
44145;SDS011;29809;52.432;4.780;2022-07-01T10:50:43;2.80;;;0.93;;
44145;SDS011;29809;52.432;4.780;2022-07-01T10:53:10;4.03;;;1.20;;
44145;SDS011;29809;52.432;4.780;2022-07-01T10:55:46;4.80;;;1.02;;
44145;SDS011;29809;52.432;4.780;2022-07-01T10:58:11;2.47;;;0.80;;
44145;SDS011;29809;52.432;4.780;2022-07-01T11:00:40;3.33;;;1.05;;
44145;SDS011;29809;52.432;4.780;2022-07-01T11:03:09;4.53;;;1.30;;
44145;SDS011;29809;52.432;4.780;2022-07-01T11:05:34;2.58;;;1.23;;
44145;SDS011;29809;52.432;4.780;2022-07-01T11:08:01;3.67;;;1.15;;
44145;SDS011;29809;52.432;4.780;2022-07-01T11:10:26;3.03;;;1.55;;
44145;SDS011;29809;52.432;4.780;2022-07-01T11:12:51;2.92;;;1.15;;
44145;SDS011;29809;52.432;4.780;2022-07-01T11:15:17;3.05;;;1.27;;
44145;SDS011;29809;52.432;4.780;2022-07-01T11:17:46;3.85;;;1.20;;
44145;SDS011;29809;52.432;4.780;2022-07-01T11:20:12;5.20;;;1.20;;
44145;SDS011;29809;52.432;4.780;2022-07-01T11:22:37;3.67;;;1.17;;
44145;SDS011;29809;52.432;4.780;2022-07-01T11:25:03;3.53;;;1.15;;
44145;SDS011;29809;52.432;4.780;2022-07-01T11:27:29;4.18;;;1.17;;
44145;SDS011;29809;52.432;4.780;2022-07-01T11:29:55;3.53;;;1.05;;
44145;SDS011;29809;52.432;4.780;2022-07-01T11:32:28;4.28;;;1.80;;
44145;SDS011;29809;52.432;4.780;2022-07-01T11:34:53;3.90;;;1.20;;
44145;SDS011;29809;52.432;4.780;2022-07-01T11:37:19;3.30;;;1.25;;
44145;SDS011;29809;52.432;4.780;2022-07-01T11:40:10;4.70;;;1.10;;
44145;SDS011;29809;52.432;4.780;2022-07-01T11:42:35;2.58;;;0.88;;
44145;SDS011;29809;52.432;4.780;2022-07-01T11:45:01;2.35;;;1.10;;
44145;SDS011;29809;52.432;4.780;2022-07-01T11:47:26;3.83;;;1.45;;
44145;SDS011;29809;52.432;4.780;2022-07-01T11:49:52;4.75;;;1.30;;
44145;SDS011;29809;52.432;4.780;2022-07-01T11:52:18;3.35;;;1.10;;
44145;SDS011;29809;52.432;4.780;2022-07-01T11:54:45;2.40;;;0.88;;
44145;SDS011;29809;52.432;4.780;2022-07-01T11:57:15;3.78;;;1.23;;
44145;SDS011;29809;52.432;4.780;2022-07-01T11:59:41;2.33;;;1.25;;
44145;SDS011;29809;52.432;4.780;2022-07-01T12:02:07;3.80;;;0.98;;
44145;SDS011;29809;52.432;4.780;2022-07-01T12:04:33;2.78;;;1.13;;
44145;SDS011;29809;52.432;4.780;2022-07-01T12:06:59;4.05;;;1.17;;
44145;SDS011;29809;52.432;4.780;2022-07-01T12:09:25;4.57;;;1.17;;
44145;SDS011;29809;52.432;4.780;2022-07-01T12:11:50;5.00;;;1.40;;
44145;SDS011;29809;52.432;4.780;2022-07-01T12:14:20;3.33;;;0.98;;
44145;SDS011;29809;52.432;4.780;2022-07-01T12:16:46;1.58;;;0.85;;
44145;SDS011;29809;52.432;4.780;2022-07-01T12:19:12;5.75;;;1.30;;
44145;SDS011;29809;52.432;4.780;2022-07-01T12:21:50;4.00;;;0.90;;
44145;SDS011;29809;52.432;4.780;2022-07-01T12:24:16;3.58;;;1.15;;
44145;SDS011;29809;52.432;4.780;2022-07-01T12:29:12;4.00;;;0.80;;
44145;SDS011;29809;52.432;4.780;2022-07-01T12:31:39;3.53;;;0.90;;
44145;SDS011;29809;52.432;4.780;2022-07-01T12:34:05;2.45;;;0.70;;
44145;SDS011;29809;52.432;4.780;2022-07-01T12:36:30;3.22;;;1.20;;
44145;SDS011;29809;52.432;4.780;2022-07-01T12:39:05;2.20;;;0.80;;
44145;SDS011;29809;52.432;4.780;2022-07-01T12:41:32;4.35;;;1.17;;
44145;SDS011;29809;52.432;4.780;2022-07-01T12:44:06;3.08;;;1.20;;
44145;SDS011;29809;52.432;4.780;2022-07-01T12:46:44;4.75;;;1.40;;
44145;SDS011;29809;52.432;4.780;2022-07-01T12:49:09;4.38;;;1.30;;
44145;SDS011;29809;52.432;4.780;2022-07-01T12:51:42;4.80;;;1.30;;
44145;SDS011;29809;52.432;4.780;2022-07-01T12:54:07;2.00;;;0.82;;
44145;SDS011;29809;52.432;4.780;2022-07-01T12:56:33;2.70;;;0.85;;
44145;SDS011;29809;52.432;4.780;2022-07-01T12:58:58;2.60;;;0.80;;
44145;SDS011;29809;52.432;4.780;2022-07-01T13:01:23;2.30;;;1.13;;
44145;SDS011;29809;52.432;4.780;2022-07-01T13:03:49;3.10;;;1.27;;
44145;SDS011;29809;52.432;4.780;2022-07-01T13:06:14;5.07;;;1.00;;
44145;SDS011;29809;52.432;4.780;2022-07-01T13:08:40;1.42;;;0.70;;
44145;SDS011;29809;52.432;4.780;2022-07-01T13:11:05;3.63;;;1.02;;
44145;SDS011;29809;52.432;4.780;2022-07-01T13:13:33;4.40;;;1.50;;
44145;SDS011;29809;52.432;4.780;2022-07-01T13:15:58;2.50;;;1.05;;
44145;SDS011;29809;52.432;4.780;2022-07-01T13:18:24;5.80;;;1.35;;
44145;SDS011;29809;52.432;4.780;2022-07-01T13:20:49;5.53;;;1.13;;
44145;SDS011;29809;52.432;4.780;2022-07-01T13:23:14;5.75;;;1.55;;
44145;SDS011;29809;52.432;4.780;2022-07-01T13:25:40;3.38;;;1.20;;
44145;SDS011;29809;52.432;4.780;2022-07-01T13:28:05;3.20;;;1.23;;
44145;SDS011;29809;52.432;4.780;2022-07-01T13:30:31;4.57;;;1.55;;
44145;SDS011;29809;52.432;4.780;2022-07-01T13:32:57;2.85;;;0.90;;
44145;SDS011;29809;52.432;4.780;2022-07-01T13:35:22;3.33;;;0.88;;
44145;SDS011;29809;52.432;4.780;2022-07-01T13:37:48;3.60;;;0.85;;
44145;SDS011;29809;52.432;4.780;2022-07-01T13:40:14;4.78;;;0.90;;
44145;SDS011;29809;52.432;4.780;2022-07-01T13:42:39;2.95;;;1.20;;
44145;SDS011;29809;52.432;4.780;2022-07-01T13:45:04;3.42;;;1.08;;
44145;SDS011;29809;52.432;4.780;2022-07-01T13:47:30;4.68;;;1.02;;
44145;SDS011;29809;52.432;4.780;2022-07-01T13:49:55;2.13;;;0.80;;
44145;SDS011;29809;52.432;4.780;2022-07-01T13:52:20;3.40;;;0.95;;
44145;SDS011;29809;52.432;4.780;2022-07-01T13:54:46;3.35;;;0.90;;
44145;SDS011;29809;52.432;4.780;2022-07-01T13:57:11;2.83;;;1.00;;
44145;SDS011;29809;52.432;4.780;2022-07-01T13:59:36;2.08;;;0.80;;
44145;SDS011;29809;52.432;4.780;2022-07-01T14:02:01;1.98;;;0.70;;
44145;SDS011;29809;52.432;4.780;2022-07-01T14:04:27;2.67;;;0.85;;
44145;SDS011;29809;52.432;4.780;2022-07-01T14:06:52;1.42;;;0.70;;
44145;SDS011;29809;52.432;4.780;2022-07-01T14:09:17;3.15;;;1.17;;
44145;SDS011;29809;52.432;4.780;2022-07-01T14:11:43;1.95;;;0.70;;
44145;SDS011;29809;52.432;4.780;2022-07-01T14:14:09;2.15;;;0.73;;
44145;SDS011;29809;52.432;4.780;2022-07-01T14:16:35;2.58;;;0.90;;
44145;SDS011;29809;52.432;4.780;2022-07-01T14:19:00;1.88;;;0.85;;
44145;SDS011;29809;52.432;4.780;2022-07-01T14:21:27;1.02;;;0.60;;
44145;SDS011;29809;52.432;4.780;2022-07-01T14:23:52;1.58;;;0.70;;
44145;SDS011;29809;52.432;4.780;2022-07-01T14:26:17;3.20;;;0.82;;
44145;SDS011;29809;52.432;4.780;2022-07-01T14:28:43;2.10;;;0.70;;
44145;SDS011;29809;52.432;4.780;2022-07-01T14:31:08;2.13;;;0.73;;
44145;SDS011;29809;52.432;4.780;2022-07-01T14:33:34;1.42;;;0.65;;
44145;SDS011;29809;52.432;4.780;2022-07-01T14:35:59;2.28;;;0.85;;
44145;SDS011;29809;52.432;4.780;2022-07-01T14:38:24;1.92;;;0.60;;
44145;SDS011;29809;52.432;4.780;2022-07-01T14:40:49;3.42;;;0.80;;
44145;SDS011;29809;52.432;4.780;2022-07-01T14:43:15;1.50;;;0.93;;
44145;SDS011;29809;52.432;4.780;2022-07-01T14:45:40;2.13;;;0.80;;
44145;SDS011;29809;52.432;4.780;2022-07-01T14:48:06;1.92;;;0.85;;
44145;SDS011;29809;52.432;4.780;2022-07-01T14:50:32;2.17;;;0.88;;
44145;SDS011;29809;52.432;4.780;2022-07-01T14:52:58;1.63;;;0.70;;
44145;SDS011;29809;52.432;4.780;2022-07-01T14:55:23;3.67;;;0.80;;